createdAt,value
2024-01-05T00:02:10.282Z,87523.25
2024-01-05T00:04:56.550Z,87516.47
2024-01-05T00:07:41.638Z,87505.84
2024-01-05T00:10:26.658Z,87519.47
2024-01-05T00:13:11.861Z,87515.50
2024-01-05T00:15:57.266Z,87510.72
2024-01-05T00:18:42.375Z,87504.56
2024-01-05T00:21:27.695Z,87505.63
2024-01-05T00:24:12.515Z,87503.50
2024-01-05T00:26:57.703Z,87508.25
2024-01-05T00:29:42.637Z,87503.34
2024-01-05T00:32:27.830Z,87497.09
2024-01-05T00:35:13.032Z,87494.25
2024-01-05T00:37:58.056Z,87482.72
2024-01-05T00:40:43.310Z,87477.16
2024-01-05T00:43:28.365Z,87484.84
2024-01-05T00:46:13.670Z,87478.31
2024-01-05T00:48:59.058Z,87471.66
2024-01-05T00:51:43.894Z,87482.31
2024-01-05T00:54:29.023Z,87480.09
2024-01-05T00:57:14.095Z,87487.06
2024-01-05T00:59:59.337Z,87487.13
2024-01-05T01:02:44.380Z,87490.28
2024-01-05T01:05:29.692Z,87493.34
2024-01-05T01:08:14.763Z,87500.72
2024-01-05T01:10:59.936Z,87493.59
2024-01-05T01:13:44.928Z,87499.78
2024-01-05T01:16:30.028Z,87504.88
2024-01-05T01:19:15.472Z,87519.56
2024-01-05T01:22:00.299Z,87514.84
2024-01-05T01:24:45.500Z,87509.28
2024-01-05T01:27:30.609Z,87504.41
2024-01-05T01:30:15.604Z,87508.31
2024-01-05T01:33:00.767Z,87523.63
2024-01-05T01:35:45.730Z,87521.41
2024-01-05T01:38:30.873Z,87527.03
2024-01-05T01:41:15.832Z,87529.50
2024-01-05T01:44:01.180Z,87535.72
2024-01-05T01:46:46.084Z,87528.94
2024-01-05T01:49:31.530Z,87530.03
2024-01-05T01:52:16.474Z,87530.84
2024-01-05T01:55:01.476Z,87531.84
2024-01-05T01:57:46.717Z,87516.78
2024-01-05T02:00:32.024Z,87513.19
2024-01-05T02:03:17.126Z,87497.72
2024-01-05T02:06:01.927Z,87482.16
2024-01-05T02:08:47.077Z,87470.81
2024-01-05T02:11:32.106Z,87459.03
2024-01-05T02:14:17.290Z,87449.13
2024-01-05T02:17:02.447Z,87443.81
2024-01-05T02:19:47.489Z,87440.69
2024-01-05T02:22:32.529Z,87441.63
2024-01-05T02:25:17.590Z,87441.44
2024-01-05T02:28:02.682Z,87440.91
2024-01-05T02:30:47.815Z,87441.53
2024-01-05T02:33:32.922Z,87443.50
2024-01-05T02:36:17.988Z,87441.56
2024-01-05T02:39:03.168Z,87439.72
2024-01-05T02:41:48.370Z,87433.75
2024-01-05T02:44:33.377Z,87434.09
2024-01-05T02:47:18.553Z,87430.53
2024-01-05T02:50:03.628Z,87424.22
2024-01-05T02:52:48.820Z,87425.22
2024-01-05T02:55:33.928Z,87414.84
2024-01-05T02:58:19.099Z,87417.97
2024-01-05T03:01:04.462Z,87408.09
2024-01-05T03:03:51.546Z,87413.03
2024-01-05T03:06:37.154Z,87415.34
2024-01-05T03:09:22.038Z,87406.34
2024-01-05T03:12:07.184Z,87409.56
2024-01-05T03:14:52.298Z,87412.69
2024-01-05T03:17:37.203Z,87408.22
2024-01-05T03:20:22.222Z,87407.84
2024-01-05T03:23:07.300Z,87409.28
2024-01-05T03:25:52.818Z,87404.34
2024-01-05T03:28:38.044Z,87400.84
2024-01-05T03:31:23.297Z,87399.09
2024-01-05T03:34:08.517Z,87401.66
2024-01-05T03:36:53.460Z,87400.78
2024-01-05T03:39:38.771Z,87400.59
2024-01-05T03:42:23.713Z,87405.34
2024-01-05T03:45:08.906Z,87399.97
2024-01-05T03:47:54.039Z,87401.88
2024-01-05T03:50:39.004Z,87391.22
2024-01-05T03:53:24.216Z,87388.81
2024-01-05T03:56:09.324Z,87385.75
2024-01-05T03:58:54.579Z,87378.25
2024-01-05T04:01:39.653Z,87378.13
2024-01-05T04:04:24.918Z,87370.25
2024-01-05T04:07:09.811Z,87366.09
2024-01-05T04:09:54.968Z,87357.78
2024-01-05T04:12:40.182Z,87362.63
2024-01-05T04:15:25.165Z,87364.63
2024-01-05T04:18:10.458Z,87360.16
2024-01-05T04:20:55.283Z,87344.00
2024-01-05T04:23:40.396Z,87338.31
2024-01-05T04:26:25.395Z,87338.63
2024-01-05T04:29:10.530Z,87338.47
2024-01-05T04:31:55.722Z,87330.91
2024-01-05T04:34:40.941Z,87334.53
2024-01-05T04:37:25.865Z,87338.84
2024-01-05T04:40:10.914Z,87338.56
2024-01-05T04:42:55.973Z,87319.84
2024-01-05T04:45:41.113Z,87319.50
2024-01-05T04:48:26.250Z,87320.38
2024-01-05T04:51:11.349Z,87320.88
2024-01-05T04:53:56.479Z,87314.34
2024-01-05T04:56:41.600Z,87314.34
2024-01-05T04:59:26.655Z,87310.88
2024-01-05T05:02:11.686Z,87300.38
2024-01-05T05:04:56.907Z,87305.00
2024-01-05T05:07:42.028Z,87311.53
2024-01-05T05:10:27.235Z,87303.94
2024-01-05T05:13:12.420Z,87311.69
2024-01-05T05:15:57.696Z,87311.00
2024-01-05T05:18:42.798Z,87304.78
2024-01-05T05:21:27.944Z,87305.16
2024-01-05T05:24:13.098Z,87299.16
2024-01-05T05:26:57.844Z,87304.00
2024-01-05T05:29:42.884Z,87295.22
2024-01-05T05:32:28.011Z,87308.50
2024-01-05T05:35:13.194Z,87308.28
2024-01-05T05:37:58.230Z,87302.47
2024-01-05T05:40:43.388Z,87309.91
2024-01-05T05:43:28.495Z,87311.47
2024-01-05T05:46:13.616Z,87304.00
2024-01-05T05:48:58.833Z,87313.84
2024-01-05T05:51:43.884Z,87316.56
2024-01-05T05:54:28.975Z,87327.94
2024-01-05T05:57:14.122Z,87316.88
2024-01-05T05:59:59.296Z,87319.13
2024-01-05T06:02:44.342Z,87331.56
2024-01-05T06:05:29.477Z,87336.78
2024-01-05T06:08:14.496Z,87335.22
2024-01-05T06:10:59.645Z,87336.91
2024-01-05T06:13:44.848Z,87337.63
2024-01-05T06:16:29.889Z,87346.81
2024-01-05T06:19:15.145Z,87357.16
2024-01-05T06:22:00.202Z,87349.03
2024-01-05T06:24:45.274Z,87355.38
2024-01-05T06:27:38.353Z,87343.34
2024-01-05T06:30:24.464Z,87342.13
2024-01-05T06:33:09.437Z,87355.06
2024-01-05T06:35:54.443Z,87345.25
2024-01-05T06:38:39.376Z,87347.34
2024-01-05T06:41:24.781Z,87343.94
2024-01-05T06:44:09.741Z,87343.44
2024-01-05T06:46:54.887Z,87340.50
2024-01-05T06:49:40.050Z,87347.75
2024-01-05T06:52:25.146Z,87349.81
2024-01-05T06:55:10.354Z,87348.06
2024-01-05T06:57:55.310Z,87345.50
2024-01-05T07:00:40.577Z,87332.91
2024-01-05T07:03:25.408Z,87341.22
2024-01-05T07:06:10.575Z,87335.34
2024-01-05T07:08:55.565Z,87336.25
2024-01-05T07:11:40.546Z,87338.38
2024-01-05T07:14:25.519Z,87330.47
2024-01-05T07:17:10.617Z,87329.94
2024-01-05T07:19:55.767Z,87325.81
2024-01-05T07:22:40.755Z,87320.81
2024-01-05T07:25:26.068Z,87321.31
2024-01-05T07:28:10.975Z,87325.22
2024-01-05T07:30:56.261Z,87330.88
2024-01-05T07:33:41.284Z,87328.81
2024-01-05T07:36:26.381Z,87334.34
2024-01-05T07:39:11.726Z,87327.63
2024-01-05T07:41:56.783Z,87331.94
2024-01-05T07:44:41.883Z,87324.19
2024-01-05T07:47:26.906Z,87328.19
2024-01-05T07:50:11.955Z,87322.66
2024-01-05T07:52:56.944Z,87326.13
2024-01-05T07:55:42.071Z,87322.88
2024-01-05T07:58:27.181Z,87318.56
2024-01-05T08:01:12.343Z,87323.41
2024-01-05T08:03:57.516Z,87321.00
2024-01-05T08:06:42.441Z,87318.06
2024-01-05T08:09:27.444Z,87313.56
2024-01-05T08:12:13.256Z,87315.47
2024-01-05T08:14:59.398Z,87315.31
2024-01-05T08:17:44.497Z,87318.06
2024-01-05T08:20:31.740Z,87320.34
2024-01-05T08:23:18.156Z,87313.44
2024-01-05T08:26:03.277Z,87311.19
2024-01-05T08:28:48.205Z,87313.63
2024-01-05T08:31:33.373Z,87311.00
2024-01-05T08:34:18.550Z,87315.84
2024-01-05T08:37:04.070Z,87307.03
2024-01-05T08:39:49.022Z,87303.41
2024-01-05T08:42:34.232Z,87313.94
2024-01-05T08:45:19.357Z,87303.41
2024-01-05T08:48:04.719Z,87303.75
2024-01-05T08:50:50.226Z,87306.50
2024-01-05T08:53:35.244Z,87313.56
2024-01-05T08:56:20.302Z,87320.84
2024-01-05T08:59:05.484Z,87318.75
2024-01-05T09:01:50.552Z,87324.28
2024-01-05T09:04:35.810Z,87322.41
2024-01-05T09:07:20.817Z,87323.09
2024-01-05T09:10:05.847Z,87335.00
2024-01-05T09:12:50.944Z,87330.38
2024-01-05T09:15:36.180Z,87330.38
2024-01-05T09:18:21.344Z,87327.59
2024-01-05T09:21:06.295Z,87332.25
2024-01-05T09:23:51.363Z,87326.88
2024-01-05T09:26:36.351Z,87331.03
2024-01-05T09:29:21.447Z,87336.19
2024-01-05T09:32:06.347Z,87334.81
2024-01-05T09:34:51.526Z,87343.63
2024-01-05T09:37:36.555Z,87343.13
2024-01-05T09:40:21.770Z,87341.56
2024-01-05T09:43:06.795Z,87345.03
2024-01-05T09:45:51.898Z,87349.88
2024-01-05T09:48:43.296Z,87348.84
2024-01-05T09:51:33.282Z,87352.81
2024-01-05T09:54:18.443Z,87356.13
2024-01-05T09:57:03.438Z,87363.88
2024-01-05T09:59:48.554Z,87371.81
2024-01-05T10:02:33.534Z,87373.72
2024-01-05T10:05:18.544Z,87375.44
2024-01-05T10:08:03.605Z,87367.47
2024-01-05T10:10:48.618Z,87379.91
2024-01-05T10:13:33.669Z,87373.66
2024-01-05T10:16:18.854Z,87365.50
2024-01-05T10:19:04.054Z,87368.25
2024-01-05T10:21:49.233Z,87370.34
2024-01-05T10:24:34.497Z,87364.13
2024-01-05T10:27:19.628Z,87355.00
2024-01-05T10:30:04.677Z,87358.69
2024-01-05T10:32:49.682Z,87340.38
2024-01-05T10:35:34.847Z,87346.94
2024-01-05T10:38:19.964Z,87336.72
2024-01-05T10:41:05.240Z,87320.50
2024-01-05T10:43:50.326Z,87330.72
2024-01-05T10:46:35.384Z,87327.25
2024-01-05T10:49:20.570Z,87324.66
2024-01-05T10:52:05.417Z,87321.69
2024-01-05T10:54:50.580Z,87320.34
2024-01-05T10:57:35.718Z,87319.31
2024-01-05T11:00:20.823Z,87317.06
2024-01-05T11:03:05.934Z,87318.44
2024-01-05T11:05:51.004Z,87313.94
2024-01-05T11:08:36.019Z,87306.16
2024-01-05T11:11:20.947Z,87297.91
2024-01-05T11:14:06.175Z,87293.38
2024-01-05T11:16:51.060Z,87288.53
2024-01-05T11:19:36.305Z,87282.50
2024-01-05T11:22:22.503Z,87279.53
2024-01-05T11:25:07.474Z,87277.13
2024-01-05T11:27:52.600Z,87270.38
2024-01-05T11:30:37.567Z,87263.97
2024-01-05T11:33:29.923Z,87254.66
2024-01-05T11:36:20.724Z,87240.88
2024-01-05T11:39:05.917Z,87259.38
2024-01-05T11:41:50.906Z,87256.41
2024-01-05T11:44:36.006Z,87239.84
2024-01-05T11:47:21.196Z,87233.97
2024-01-05T11:50:06.244Z,87236.53
2024-01-05T11:52:51.206Z,87227.41
2024-01-05T11:55:36.261Z,87214.63
2024-01-05T11:58:21.442Z,87208.94
2024-01-05T12:01:06.596Z,87202.22
2024-01-05T12:03:51.772Z,87190.81
2024-01-05T12:06:36.975Z,87183.53
2024-01-05T12:09:22.153Z,87180.78
2024-01-05T12:12:07.349Z,87169.34
2024-01-05T12:14:52.459Z,87175.72
2024-01-05T12:17:38.770Z,87171.56
2024-01-05T12:20:25.075Z,87166.97
2024-01-05T12:23:09.819Z,87174.72
2024-01-05T12:25:55.021Z,87164.53
2024-01-05T12:28:40.006Z,87162.31
2024-01-05T12:31:25.426Z,87156.78
2024-01-05T12:34:10.602Z,87154.19
2024-01-05T12:36:55.837Z,87157.09
2024-01-05T12:39:40.793Z,87162.09
2024-01-05T12:42:26.097Z,87157.06
2024-01-05T12:45:11.256Z,87153.44
2024-01-05T12:47:56.229Z,87155.38
2024-01-05T12:50:41.255Z,87155.63
2024-01-05T12:53:26.180Z,87168.69
2024-01-05T12:56:11.227Z,87163.69
2024-01-05T12:58:56.242Z,87167.63
2024-01-05T13:01:41.550Z,87170.06
2024-01-05T13:04:26.701Z,87165.22
2024-01-05T13:07:12.563Z,87172.66
2024-01-05T13:09:58.114Z,87170.41
2024-01-05T13:12:43.185Z,87174.75
2024-01-05T13:15:28.233Z,87183.19
2024-01-05T13:18:13.438Z,87184.63
2024-01-05T13:20:58.506Z,87183.59
2024-01-05T13:23:43.911Z,87180.66
2024-01-05T13:26:29.262Z,87179.09
2024-01-05T13:29:14.403Z,87182.72
2024-01-05T13:31:59.473Z,87185.31
2024-01-05T13:34:44.739Z,87189.09
2024-01-05T13:37:29.984Z,87183.41
2024-01-05T13:40:15.099Z,87179.25
2024-01-05T13:43:00.314Z,87178.19
2024-01-05T13:45:45.308Z,87171.44
2024-01-05T13:48:30.430Z,87181.28
2024-01-05T13:51:15.374Z,87171.44
2024-01-05T13:54:00.639Z,87166.13
2024-01-05T13:56:45.653Z,87165.59
2024-01-05T13:59:30.698Z,87155.75
2024-01-05T14:02:15.837Z,87156.94
2024-01-05T14:05:00.935Z,87153.16
2024-01-05T14:07:46.126Z,87147.97
2024-01-05T14:10:31.178Z,87156.59
2024-01-05T14:13:16.277Z,87144.69
2024-01-05T14:16:01.468Z,87141.63
2024-01-05T14:18:46.365Z,87143.00
2024-01-05T14:21:31.448Z,87136.59
2024-01-05T14:24:16.554Z,87137.66
2024-01-05T14:27:01.666Z,87130.91
2024-01-05T14:29:46.722Z,87117.47
2024-01-05T14:32:31.960Z,87126.41
2024-01-05T14:35:17.093Z,87119.88
2024-01-05T14:38:02.125Z,87118.84
2024-01-05T14:40:47.173Z,87111.75
2024-01-05T14:43:32.266Z,87110.53
2024-01-05T14:46:17.460Z,87117.09
2024-01-05T14:49:02.567Z,87107.94
2024-01-05T14:51:47.580Z,87106.72
2024-01-05T14:54:32.709Z,87110.31
2024-01-05T14:57:17.890Z,87101.81
2024-01-05T15:00:03.008Z,87107.13
2024-01-05T15:02:47.982Z,87095.38
2024-01-05T15:05:33.376Z,87099.81
2024-01-05T15:08:18.377Z,87108.25
2024-01-05T15:11:03.524Z,87104.84
2024-01-05T15:13:48.600Z,87097.66
2024-01-05T15:16:33.605Z,87088.00
2024-01-05T15:19:18.792Z,87094.59
2024-01-05T15:22:04.156Z,87083.59
2024-01-05T15:24:49.364Z,87080.66
2024-01-05T15:27:34.473Z,87090.66
2024-01-05T15:30:19.668Z,87095.81
2024-01-05T15:33:04.747Z,87103.94
2024-01-05T15:35:49.819Z,87102.75
2024-01-05T15:38:34.906Z,87100.50
2024-01-05T15:41:19.888Z,87097.91
2024-01-05T15:44:05.068Z,87102.22
2024-01-05T15:46:50.113Z,87091.00
2024-01-05T15:49:35.431Z,87085.13
2024-01-05T15:52:20.344Z,87089.44
2024-01-05T15:55:05.559Z,87100.09
2024-01-05T15:57:50.656Z,87090.78
2024-01-05T16:00:35.727Z,87092.16
2024-01-05T16:03:20.980Z,87085.75
2024-01-05T16:06:05.839Z,87089.03
2024-01-05T16:08:50.913Z,87088.00
2024-01-05T16:11:36.065Z,87084.56
2024-01-05T16:14:21.085Z,87084.56
2024-01-05T16:17:06.175Z,87091.78
2024-01-05T16:19:51.563Z,87077.31
2024-01-05T16:22:36.605Z,87087.66
2024-01-05T16:25:21.767Z,87083.69
2024-01-05T16:28:06.906Z,87079.69
2024-01-05T16:30:52.012Z,87080.03
2024-01-05T16:33:37.173Z,87076.91
2024-01-05T16:36:22.425Z,87075.34
2024-01-05T16:39:07.656Z,87075.16
2024-01-05T16:41:52.728Z,87076.88
2024-01-05T16:44:37.682Z,87082.19
2024-01-05T16:47:22.789Z,87077.38
2024-01-05T16:50:07.823Z,87082.03
2024-01-05T16:52:53.052Z,87084.06
2024-01-05T16:55:38.041Z,87075.63
2024-01-05T16:58:23.195Z,87075.63
2024-01-05T17:01:08.397Z,87074.06
2024-01-05T17:03:53.447Z,87078.38
2024-01-05T17:06:38.581Z,87076.13
2024-01-05T17:09:23.844Z,87072.81
2024-01-05T17:12:08.936Z,87074.91
2024-01-05T17:14:53.955Z,87079.03
2024-01-05T17:17:39.286Z,87077.69
2024-01-05T17:20:25.723Z,87081.97
2024-01-05T17:23:11.393Z,87084.03
2024-01-05T17:25:56.552Z,87082.16
2024-01-05T17:28:41.565Z,87085.94
2024-01-05T17:31:26.882Z,87088.53
2024-01-05T17:34:11.904Z,87096.06
2024-01-05T17:36:56.722Z,87094.69
2024-01-05T17:39:41.883Z,87092.44
2024-01-05T17:42:27.965Z,87092.88
2024-01-05T17:45:12.751Z,87100.03
2024-01-05T17:47:57.832Z,87095.22
2024-01-05T17:50:42.869Z,87081.63
2024-01-05T17:53:27.825Z,87092.13
2024-01-05T17:56:13.029Z,87087.84
2024-01-05T17:58:58.228Z,87086.47
2024-01-05T18:01:43.359Z,87092.31
2024-01-05T18:04:30.361Z,87093.53
2024-01-05T18:07:15.716Z,87094.75
2024-01-05T18:10:00.801Z,87086.84
2024-01-05T18:12:46.011Z,87081.16
2024-01-05T18:15:31.036Z,87088.91
2024-01-05T18:18:16.443Z,87083.03
2024-01-05T18:21:01.294Z,87078.09
2024-01-05T18:23:46.340Z,87079.78
2024-01-05T18:26:31.379Z,87084.56
2024-01-05T18:29:22.105Z,87097.16
2024-01-05T18:32:13.046Z,87087.72
2024-01-05T18:34:58.391Z,87078.09
2024-01-05T18:37:43.217Z,87078.97
2024-01-05T18:40:28.466Z,87082.41
2024-01-05T18:43:13.482Z,87079.50
2024-01-05T18:45:58.509Z,87074.84
2024-01-05T18:48:43.832Z,87069.16
2024-01-05T18:51:28.924Z,87080.69
2024-01-05T18:54:13.950Z,87079.31
2024-01-05T18:56:58.958Z,87080.19
2024-01-05T18:59:44.253Z,87077.44
2024-01-05T19:02:29.306Z,87081.38
2024-01-05T19:05:14.509Z,87075.66
2024-01-05T19:07:59.617Z,87085.16
2024-01-05T19:10:44.653Z,87079.81
2024-01-05T19:13:29.929Z,87079.38
2024-01-05T19:16:15.129Z,87083.09
2024-01-05T19:19:00.514Z,87080.06
2024-01-05T19:21:53.130Z,87084.03
2024-01-05T19:24:41.925Z,87087.97
2024-01-05T19:27:26.998Z,87085.91
2024-01-05T19:30:12.249Z,87090.47
2024-01-05T19:32:57.308Z,87084.84
2024-01-05T19:35:42.385Z,87087.38
2024-01-05T19:38:27.568Z,87082.84
2024-01-05T19:41:12.547Z,87092.53
2024-01-05T19:43:57.689Z,87087.94
2024-01-05T19:46:42.757Z,87090.38
2024-01-05T19:49:28.111Z,87092.44
2024-01-05T19:52:12.973Z,87088.91
2024-01-05T19:54:58.199Z,87093.75
2024-01-05T19:57:43.377Z,87090.59
2024-01-05T20:00:28.425Z,87095.44
2024-01-05T20:03:13.729Z,87094.38
2024-01-05T20:05:59.088Z,87095.03
2024-01-05T20:08:44.885Z,87093.25
2024-01-05T20:11:29.885Z,87089.63
2024-01-05T20:14:14.940Z,87091.44
2024-01-05T20:17:00.158Z,87085.44
2024-01-05T20:19:45.240Z,87079.28
2024-01-05T20:22:30.178Z,87083.22
2024-01-05T20:25:15.185Z,87077.75
2024-01-05T20:28:00.328Z,87075.69
2024-01-05T20:30:45.314Z,87073.31
2024-01-05T20:33:30.614Z,87066.25
2024-01-05T20:36:15.658Z,87068.84
2024-01-05T20:39:01.170Z,87057.31
2024-01-05T20:41:46.488Z,87062.09
2024-01-05T20:44:31.489Z,87046.28
2024-01-05T20:47:16.681Z,87056.03
2024-01-05T20:50:01.972Z,87057.69
2024-01-05T20:52:46.990Z,87049.72
2024-01-05T20:55:32.168Z,87048.63
2024-01-05T20:58:17.207Z,87053.25
2024-01-05T21:01:02.420Z,87048.72
2024-01-05T21:03:47.492Z,87044.19
2024-01-05T21:06:32.728Z,87046.72
2024-01-05T21:09:17.745Z,87049.53
2024-01-05T21:12:02.911Z,87040.25
2024-01-05T21:14:48.206Z,87038.03
2024-01-05T21:17:33.429Z,87029.19
2024-01-05T21:20:18.327Z,87036.78
2024-01-05T21:23:03.322Z,87037.53
2024-01-05T21:25:48.472Z,87032.63
2024-01-05T21:28:33.688Z,87031.78
2024-01-05T21:31:18.996Z,87031.66
2024-01-05T21:34:04.175Z,87039.75
2024-01-05T21:36:49.109Z,87037.19
2024-01-05T21:39:34.387Z,87047.50
2024-01-05T21:42:19.427Z,87045.47
2024-01-05T21:45:04.574Z,87048.06
2024-01-05T21:47:49.673Z,87052.00
2024-01-05T21:50:34.735Z,87048.53
2024-01-05T21:53:19.800Z,87047.94
2024-01-05T21:56:04.859Z,87051.47
2024-01-05T21:58:49.817Z,87057.25
2024-01-05T22:01:34.921Z,87052.63
2024-01-05T22:04:20.262Z,87047.16
2024-01-05T22:07:05.238Z,87052.69
2024-01-05T22:09:50.365Z,87043.44
2024-01-05T22:12:35.347Z,87037.47
2024-01-05T22:15:20.510Z,87041.09
2024-01-05T22:18:05.856Z,87049.19
2024-01-05T22:20:50.879Z,87050.41
2024-01-05T22:23:38.988Z,87053.16
2024-01-05T22:26:25.367Z,87049.38
2024-01-05T22:29:10.076Z,87043.66
2024-01-05T22:31:55.370Z,87045.31
2024-01-05T22:34:40.425Z,87043.50
2024-01-05T22:37:25.544Z,87044.50
2024-01-05T22:40:10.650Z,87044.19
2024-01-05T22:42:55.733Z,87043.06
2024-01-05T22:45:40.888Z,87053.25
2024-01-05T22:48:33.052Z,87044.56
2024-01-05T22:51:21.121Z,87050.97
2024-01-05T22:54:06.269Z,87049.03
2024-01-05T22:56:51.362Z,87049.59
2024-01-05T22:59:36.531Z,87053.56
2024-01-05T23:02:21.611Z,87056.00
2024-01-05T23:05:06.693Z,87055.22
2024-01-05T23:07:51.867Z,87045.25
2024-01-05T23:10:36.922Z,87043.88
2024-01-05T23:13:22.214Z,87048.00
2024-01-05T23:16:07.170Z,87042.38
2024-01-05T23:18:52.379Z,87043.25
2024-01-05T23:21:37.517Z,87042.22
2024-01-05T23:24:22.623Z,87044.09
2024-01-05T23:27:07.817Z,87042.94
2024-01-05T23:29:52.669Z,87040.03
2024-01-05T23:32:37.916Z,87046.69
2024-01-05T23:35:23.020Z,87053.03
2024-01-05T23:38:08.134Z,87054.94
2024-01-05T23:40:53.337Z,87061.16
2024-01-05T23:43:38.503Z,87060.47
2024-01-05T23:46:23.658Z,87060.09
2024-01-05T23:49:08.856Z,87059.03
2024-01-05T23:51:53.987Z,87058.97
2024-01-05T23:54:38.852Z,87059.78
2024-01-05T23:57:24.025Z,87066.06
